sensor_id;sensor_type;location;lat;lon;timestamp;pressure;altitude;pressure_sealevel;temperature;humidity
24620;BME280;12763;55.802;37.404;2023-03-19T00:02:00;100884.38;;;1.49;44.60
24620;BME280;12763;55.802;37.404;2023-03-19T00:04:26;100876.97;;;1.51;44.90
24620;BME280;12763;55.802;37.404;2023-03-19T00:06:52;100874.97;;;1.53;44.70
24620;BME280;12763;55.802;37.404;2023-03-19T00:09:19;100875.13;;;1.52;45.57
24620;BME280;12763;55.802;37.404;2023-03-19T00:11:46;100872.41;;;1.52;45.19
24620;BME280;12763;55.802;37.404;2023-03-19T00:14:12;100869.28;;;1.56;44.86
24620;BME280;12763;55.802;37.404;2023-03-19T00:16:38;100861.84;;;1.58;44.95
24620;BME280;12763;55.802;37.404;2023-03-19T00:19:04;100868.16;;;1.59;45.07
24620;BME280;12763;55.802;37.404;2023-03-19T00:21:30;100863.84;;;1.56;45.13
24620;BME280;12763;55.802;37.404;2023-03-19T00:23:57;100861.25;;;1.44;45.36
24620;BME280;12763;55.802;37.404;2023-03-19T00:26:28;100852.13;;;1.45;45.54
24620;BME280;12763;55.802;37.404;2023-03-19T00:28:54;100858.03;;;1.50;45.27
24620;BME280;12763;55.802;37.404;2023-03-19T00:31:21;100854.13;;;1.43;45.56
24620;BME280;12763;55.802;37.404;2023-03-19T00:33:47;100852.88;;;1.36;45.37
24620;BME280;12763;55.802;37.404;2023-03-19T00:36:13;100864.63;;;1.36;45.53
24620;BME280;12763;55.802;37.404;2023-03-19T00:38:41;100853.97;;;1.44;45.65
24620;BME280;12763;55.802;37.404;2023-03-19T00:41:07;100853.09;;;1.44;45.57
24620;BME280;12763;55.802;37.404;2023-03-19T00:43:34;100856.66;;;1.24;45.61
24620;BME280;12763;55.802;37.404;2023-03-19T00:46:00;100853.16;;;1.22;46.49
24620;BME280;12763;55.802;37.404;2023-03-19T00:48:26;100849.22;;;1.26;46.42
24620;BME280;12763;55.802;37.404;2023-03-19T00:50:51;100844.75;;;1.25;46.66
24620;BME280;12763;55.802;37.404;2023-03-19T00:53:17;100838.59;;;1.23;46.79
24620;BME280;12763;55.802;37.404;2023-03-19T00:55:43;100848.97;;;1.29;46.72
24620;BME280;12763;55.802;37.404;2023-03-19T00:58:09;100844.97;;;1.33;46.31
24620;BME280;12763;55.802;37.404;2023-03-19T01:00:36;100850.41;;;1.33;46.59
24620;BME280;12763;55.802;37.404;2023-03-19T01:03:04;100853.34;;;1.09;46.77
24620;BME280;12763;55.802;37.404;2023-03-19T01:05:33;100842.19;;;1.23;46.96
24620;BME280;12763;55.802;37.404;2023-03-19T01:07:59;100839.72;;;1.20;46.74
24620;BME280;12763;55.802;37.404;2023-03-19T01:10:25;100847.16;;;1.18;47.06
24620;BME280;12763;55.802;37.404;2023-03-19T01:12:51;100850.00;;;1.05;47.73
24620;BME280;12763;55.802;37.404;2023-03-19T01:15:17;100846.56;;;1.03;47.46
24620;BME280;12763;55.802;37.404;2023-03-19T01:17:43;100833.56;;;1.07;47.42
24620;BME280;12763;55.802;37.404;2023-03-19T01:20:11;100832.47;;;1.09;47.99
24620;BME280;12763;55.802;37.404;2023-03-19T01:22:44;100841.13;;;1.03;47.89
24620;BME280;12763;55.802;37.404;2023-03-19T01:25:12;100837.16;;;1.07;48.00
24620;BME280;12763;55.802;37.404;2023-03-19T01:27:43;100831.50;;;0.99;48.14
24620;BME280;12763;55.802;37.404;2023-03-19T01:30:09;100833.97;;;0.91;48.43
24620;BME280;12763;55.802;37.404;2023-03-19T01:33:04;100830.84;;;1.18;49.12
24620;BME280;12763;55.802;37.404;2023-03-19T01:36:06;100831.50;;;0.99;48.50
24620;BME280;12763;55.802;37.404;2023-03-19T01:38:47;100833.59;;;0.96;48.31
24620;BME280;12763;55.802;37.404;2023-03-19T01:41:14;100828.28;;;0.83;48.91
24620;BME280;12763;55.802;37.404;2023-03-19T01:43:40;100819.75;;;0.99;48.83
24620;BME280;12763;55.802;37.404;2023-03-19T01:46:35;100821.47;;;1.00;48.36
24620;BME280;12763;55.802;37.404;2023-03-19T01:49:22;100820.50;;;0.90;49.07
24620;BME280;12763;55.802;37.404;2023-03-19T01:51:55;100821.34;;;1.01;50.34
24620;BME280;12763;55.802;37.404;2023-03-19T01:54:46;100820.53;;;0.79;49.44
24620;BME280;12763;55.802;37.404;2023-03-19T01:57:31;100807.56;;;0.82;49.32
24620;BME280;12763;55.802;37.404;2023-03-19T02:00:16;100812.00;;;0.72;50.16
24620;BME280;12763;55.802;37.404;2023-03-19T02:02:49;100801.91;;;0.74;50.10
24620;BME280;12763;55.802;37.404;2023-03-19T02:05:54;100810.53;;;0.68;50.00
24620;BME280;12763;55.802;37.404;2023-03-19T02:08:23;100800.16;;;0.62;50.30
24620;BME280;12763;55.802;37.404;2023-03-19T02:10:51;100804.00;;;0.71;50.14
24620;BME280;12763;55.802;37.404;2023-03-19T02:13:21;100792.66;;;0.43;50.84
24620;BME280;12763;55.802;37.404;2023-03-19T02:15:49;100798.66;;;0.69;50.63
24620;BME280;12763;55.802;37.404;2023-03-19T02:18:15;100798.66;;;0.69;50.28
24620;BME280;12763;55.802;37.404;2023-03-19T02:20:59;100791.53;;;0.68;50.92
24620;BME280;12763;55.802;37.404;2023-03-19T02:23:52;100786.72;;;0.72;50.89
24620;BME280;12763;55.802;37.404;2023-03-19T02:26:34;100789.53;;;0.59;51.03
24620;BME280;12763;55.802;37.404;2023-03-19T02:29:02;100791.06;;;0.52;51.08
24620;BME280;12763;55.802;37.404;2023-03-19T02:31:32;100790.66;;;0.56;51.16
24620;BME280;12763;55.802;37.404;2023-03-19T02:34:03;100792.66;;;0.54;50.74
24620;BME280;12763;55.802;37.404;2023-03-19T02:36:36;100787.31;;;0.53;51.73
24620;BME280;12763;55.802;37.404;2023-03-19T02:39:07;100783.38;;;0.57;51.51
24620;BME280;12763;55.802;37.404;2023-03-19T02:41:35;100784.50;;;0.43;51.85
24620;BME280;12763;55.802;37.404;2023-03-19T02:44:03;100790.56;;;0.47;51.38
24620;BME280;12763;55.802;37.404;2023-03-19T02:46:30;100788.34;;;0.52;51.54
24620;BME280;12763;55.802;37.404;2023-03-19T02:48:56;100784.59;;;0.53;51.28
24620;BME280;12763;55.802;37.404;2023-03-19T02:51:23;100787.72;;;0.48;51.59
24620;BME280;12763;55.802;37.404;2023-03-19T02:53:49;100786.22;;;0.44;51.84
24620;BME280;12763;55.802;37.404;2023-03-19T02:56:16;100788.34;;;0.52;51.56
24620;BME280;12763;55.802;37.404;2023-03-19T02:58:42;100777.34;;;0.42;52.13
24620;BME280;12763;55.802;37.404;2023-03-19T03:01:08;100773.66;;;0.43;52.15
24620;BME280;12763;55.802;37.404;2023-03-19T03:03:34;100771.91;;;0.42;52.36
24620;BME280;12763;55.802;37.404;2023-03-19T03:05:59;100768.31;;;0.42;51.91
24620;BME280;12763;55.802;37.404;2023-03-19T03:08:25;100773.28;;;0.37;52.58
24620;BME280;12763;55.802;37.404;2023-03-19T03:10:52;100763.28;;;0.37;52.46
24620;BME280;12763;55.802;37.404;2023-03-19T03:13:18;100763.91;;;0.41;52.56
24620;BME280;12763;55.802;37.404;2023-03-19T03:15:44;100772.53;;;0.35;52.59
24620;BME280;12763;55.802;37.404;2023-03-19T03:18:09;100765.34;;;0.45;52.42
24620;BME280;12763;55.802;37.404;2023-03-19T03:20:35;100768.94;;;0.45;52.72
24620;BME280;12763;55.802;37.404;2023-03-19T03:23:01;100756.50;;;0.32;52.90
24620;BME280;12763;55.802;37.404;2023-03-19T03:25:27;100757.13;;;0.35;52.77
24620;BME280;12763;55.802;37.404;2023-03-19T03:27:54;100761.91;;;0.43;52.37
24620;BME280;12763;55.802;37.404;2023-03-19T03:30:19;100760.31;;;0.51;52.53
24620;BME280;12763;55.802;37.404;2023-03-19T03:32:45;100763.63;;;0.55;53.00
24620;BME280;12763;55.802;37.404;2023-03-19T03:35:12;100762.41;;;0.48;52.67
24620;BME280;12763;55.802;37.404;2023-03-19T03:37:40;100760.31;;;0.40;52.56
24620;BME280;12763;55.802;37.404;2023-03-19T03:40:09;100762.31;;;0.27;52.83
24620;BME280;12763;55.802;37.404;2023-03-19T03:42:35;100761.19;;;0.19;53.56
24620;BME280;12763;55.802;37.404;2023-03-19T03:45:03;100757.84;;;0.37;53.40
24620;BME280;12763;55.802;37.404;2023-03-19T03:47:29;100759.94;;;0.45;52.87
24620;BME280;12763;55.802;37.404;2023-03-19T03:49:56;100759.44;;;0.51;52.77
24620;BME280;12763;55.802;37.404;2023-03-19T03:52:22;100751.91;;;0.43;52.78
24620;BME280;12763;55.802;37.404;2023-03-19T03:54:48;100758.72;;;0.38;53.19
24620;BME280;12763;55.802;37.404;2023-03-19T03:57:14;100756.72;;;0.29;53.18
24620;BME280;12763;55.802;37.404;2023-03-19T03:59:40;100754.25;;;0.37;53.73
24620;BME280;12763;55.802;37.404;2023-03-19T04:02:06;100751.06;;;0.43;52.91
24620;BME280;12763;55.802;37.404;2023-03-19T04:04:32;100755.34;;;0.68;52.30
24620;BME280;12763;55.802;37.404;2023-03-19T04:06:58;100762.13;;;0.62;52.56
24620;BME280;12763;55.802;37.404;2023-03-19T04:09:44;100757.31;;;0.66;52.57
24620;BME280;12763;55.802;37.404;2023-03-19T04:12:12;100739.66;;;0.71;52.32
24620;BME280;12763;55.802;37.404;2023-03-19T04:14:38;100749.41;;;0.74;52.46
24620;BME280;12763;55.802;37.404;2023-03-19T04:17:04;100748.56;;;0.62;52.68
24620;BME280;12763;55.802;37.404;2023-03-19T04:19:30;100747.47;;;0.42;52.84
24620;BME280;12763;55.802;37.404;2023-03-19T04:21:57;100734.34;;;0.58;52.66
24620;BME280;12763;55.802;37.404;2023-03-19T04:24:24;100742.00;;;0.53;52.80
24620;BME280;12763;55.802;37.404;2023-03-19T04:26:50;100742.69;;;0.78;52.32
24620;BME280;12763;55.802;37.404;2023-03-19T04:29:18;100746.34;;;0.56;53.02
24620;BME280;12763;55.802;37.404;2023-03-19T04:31:44;100743.09;;;0.73;52.21
24620;BME280;12763;55.802;37.404;2023-03-19T04:34:10;100735.66;;;0.75;52.39
24620;BME280;12763;55.802;37.404;2023-03-19T04:36:37;100734.19;;;0.82;52.78
24620;BME280;12763;55.802;37.404;2023-03-19T04:39:04;100729.84;;;0.91;52.46
24620;BME280;12763;55.802;37.404;2023-03-19T04:41:30;100730.69;;;0.91;51.97
24620;BME280;12763;55.802;37.404;2023-03-19T04:44:12;100740.53;;;1.03;51.96
24620;BME280;12763;55.802;37.404;2023-03-19T04:46:39;100728.19;;;0.99;51.75
24620;BME280;12763;55.802;37.404;2023-03-19T04:49:06;100725.69;;;1.07;51.58
24620;BME280;12763;55.802;37.404;2023-03-19T04:51:32;100736.63;;;1.17;51.80
24620;BME280;12763;55.802;37.404;2023-03-19T04:53:58;100729.16;;;1.30;51.69
24620;BME280;12763;55.802;37.404;2023-03-19T04:56:24;100735.97;;;1.25;51.53
24620;BME280;12763;55.802;37.404;2023-03-19T04:58:51;100726.59;;;1.29;51.49
24620;BME280;12763;55.802;37.404;2023-03-19T05:01:17;100721.53;;;1.45;51.34
24620;BME280;12763;55.802;37.404;2023-03-19T05:04:01;100721.09;;;1.40;51.35
24620;BME280;12763;55.802;37.404;2023-03-19T05:06:28;100727.72;;;1.47;51.30
24620;BME280;12763;55.802;37.404;2023-03-19T05:08:54;100727.13;;;1.64;52.28
24620;BME280;12763;55.802;37.404;2023-03-19T05:11:21;100722.50;;;1.85;52.40
24620;BME280;12763;55.802;37.404;2023-03-19T05:14:09;100721.00;;;1.92;51.51
24620;BME280;12763;55.802;37.404;2023-03-19T05:16:54;100723.75;;;2.02;51.50
24620;BME280;12763;55.802;37.404;2023-03-19T05:19:19;100714.22;;;1.87;50.40
24620;BME280;12763;55.802;37.404;2023-03-19T05:21:46;100723.53;;;1.84;51.07
24620;BME280;12763;55.802;37.404;2023-03-19T05:24:15;100717.75;;;2.08;50.79
24620;BME280;12763;55.802;37.404;2023-03-19T05:26:42;100707.84;;;1.97;50.54
24620;BME280;12763;55.802;37.404;2023-03-19T05:29:27;100713.72;;;2.02;50.66
24620;BME280;12763;55.802;37.404;2023-03-19T05:32:06;100707.91;;;1.86;50.75
24620;BME280;12763;55.802;37.404;2023-03-19T05:34:32;100702.56;;;2.05;50.88
24620;BME280;12763;55.802;37.404;2023-03-19T05:36:58;100706.13;;;2.26;50.22
24620;BME280;12763;55.802;37.404;2023-03-19T05:39:24;100704.09;;;2.28;50.10
24620;BME280;12763;55.802;37.404;2023-03-19T05:41:50;100700.19;;;2.21;49.52
24620;BME280;12763;55.802;37.404;2023-03-19T05:44:22;100697.13;;;2.05;50.26
24620;BME280;12763;55.802;37.404;2023-03-19T05:47:01;100688.75;;;1.88;50.35
24620;BME280;12763;55.802;37.404;2023-03-19T05:49:30;100696.56;;;2.11;49.67
24620;BME280;12763;55.802;37.404;2023-03-19T05:51:56;100687.03;;;2.26;49.68
24620;BME280;12763;55.802;37.404;2023-03-19T05:54:22;100690.94;;;2.33;49.18
24620;BME280;12763;55.802;37.404;2023-03-19T05:57:11;100687.94;;;2.36;48.91
24620;BME280;12763;55.802;37.404;2023-03-19T05:59:45;100684.50;;;2.34;48.85
24620;BME280;12763;55.802;37.404;2023-03-19T06:02:36;100682.06;;;2.41;49.25
24620;BME280;12763;55.802;37.404;2023-03-19T06:05:23;100678.09;;;2.64;48.65
24620;BME280;12763;55.802;37.404;2023-03-19T06:07:52;100682.09;;;2.60;49.92
24620;BME280;12763;55.802;37.404;2023-03-19T06:10:26;100674.13;;;2.97;50.07
24620;BME280;12763;55.802;37.404;2023-03-19T06:12:54;100671.22;;;3.46;49.27
24620;BME280;12763;55.802;37.404;2023-03-19T06:15:55;100658.84;;;3.62;48.83
24620;BME280;12763;55.802;37.404;2023-03-19T06:18:26;100671.06;;;3.58;47.83
24620;BME280;12763;55.802;37.404;2023-03-19T06:20:52;100656.53;;;3.57;47.68
24620;BME280;12763;55.802;37.404;2023-03-19T06:23:18;100657.19;;;3.22;48.29
24620;BME280;12763;55.802;37.404;2023-03-19T06:25:44;100649.13;;;3.30;48.21
24620;BME280;12763;55.802;37.404;2023-03-19T06:28:10;100655.88;;;3.26;47.73
24620;BME280;12763;55.802;37.404;2023-03-19T06:30:41;100651.13;;;3.38;47.45
24620;BME280;12763;55.802;37.404;2023-03-19T06:33:29;100649.84;;;3.32;47.77
24620;BME280;12763;55.802;37.404;2023-03-19T06:35:57;100651.72;;;3.13;48.60
24620;BME280;12763;55.802;37.404;2023-03-19T06:38:24;100644.53;;;3.02;48.62
24620;BME280;12763;55.802;37.404;2023-03-19T06:40:50;100651.16;;;3.28;48.03
24620;BME280;12763;55.802;37.404;2023-03-19T06:43:15;100643.97;;;3.37;47.89
24620;BME280;12763;55.802;37.404;2023-03-19T06:45:41;100639.91;;;3.41;47.38
24620;BME280;12763;55.802;37.404;2023-03-19T06:48:07;100636.72;;;3.45;46.97
24620;BME280;12763;55.802;37.404;2023-03-19T06:50:33;100641.59;;;3.61;47.22
24620;BME280;12763;55.802;37.404;2023-03-19T06:52:59;100638.41;;;3.66;47.11
24620;BME280;12763;55.802;37.404;2023-03-19T06:55:25;100638.25;;;3.77;47.03
24620;BME280;12763;55.802;37.404;2023-03-19T06:57:50;100635.50;;;3.86;47.25
24620;BME280;12763;55.802;37.404;2023-03-19T07:00:17;100629.44;;;3.83;47.02
24620;BME280;12763;55.802;37.404;2023-03-19T07:02:43;100634.56;;;3.59;46.87
24620;BME280;12763;55.802;37.404;2023-03-19T07:05:09;100625.19;;;3.71;46.99
24620;BME280;12763;55.802;37.404;2023-03-19T07:07:35;100626.13;;;3.89;46.66
24620;BME280;12763;55.802;37.404;2023-03-19T07:10:01;100617.28;;;4.04;46.13
24620;BME280;12763;55.802;37.404;2023-03-19T07:12:29;100618.56;;;4.10;45.86
24620;BME280;12763;55.802;37.404;2023-03-19T07:14:55;100624.00;;;4.37;45.69
24620;BME280;12763;55.802;37.404;2023-03-19T07:17:21;100612.22;;;4.37;45.62
24620;BME280;12763;55.802;37.404;2023-03-19T07:19:47;100611.91;;;4.40;45.41
24620;BME280;12763;55.802;37.404;2023-03-19T07:22:13;100604.03;;;4.54;46.00
24620;BME280;12763;55.802;37.404;2023-03-19T07:24:39;100610.28;;;4.64;45.43
24620;BME280;12763;55.802;37.404;2023-03-19T07:27:05;100610.00;;;4.67;45.76
24620;BME280;12763;55.802;37.404;2023-03-19T07:29:31;100602.56;;;4.60;46.27
24620;BME280;12763;55.802;37.404;2023-03-19T07:31:57;100602.81;;;4.66;45.35
24620;BME280;12763;55.802;37.404;2023-03-19T07:34:23;100600.84;;;4.77;45.62
24620;BME280;12763;55.802;37.404;2023-03-19T07:36:49;100601.41;;;4.80;45.03
24620;BME280;12763;55.802;37.404;2023-03-19T07:39:15;100601.63;;;4.87;44.87
24620;BME280;12763;55.802;37.404;2023-03-19T07:41:41;100597.66;;;4.99;44.53
24620;BME280;12763;55.802;37.404;2023-03-19T07:44:13;100606.88;;;4.98;44.51
24620;BME280;12763;55.802;37.404;2023-03-19T07:46:39;100599.44;;;5.08;44.26
24620;BME280;12763;55.802;37.404;2023-03-19T07:49:05;100595.97;;;5.06;44.47
24620;BME280;12763;55.802;37.404;2023-03-19T07:51:32;100590.13;;;5.01;44.19
24620;BME280;12763;55.802;37.404;2023-03-19T07:53:58;100587.63;;;5.07;43.97
24620;BME280;12763;55.802;37.404;2023-03-19T07:56:24;100591.94;;;5.10;44.19
24620;BME280;12763;55.802;37.404;2023-03-19T07:58:50;100587.16;;;5.12;44.41
24620;BME280;12763;55.802;37.404;2023-03-19T08:01:16;100588.97;;;5.03;44.96
24620;BME280;12763;55.802;37.404;2023-03-19T08:03:42;100585.34;;;5.03;45.15
24620;BME280;12763;55.802;37.404;2023-03-19T08:06:08;100583.72;;;5.10;45.14
24620;BME280;12763;55.802;37.404;2023-03-19T08:08:34;100578.50;;;5.16;44.74
24620;BME280;12763;55.802;37.404;2023-03-19T08:11:01;100571.63;;;4.95;45.02
24620;BME280;12763;55.802;37.404;2023-03-19T08:13:28;100566.00;;;4.96;45.18
24620;BME280;12763;55.802;37.404;2023-03-19T08:15:53;100563.75;;;5.17;44.60
24620;BME280;12763;55.802;37.404;2023-03-19T08:18:20;100565.31;;;5.20;44.76
24620;BME280;12763;55.802;37.404;2023-03-19T08:20:46;100560.09;;;5.52;44.01
24620;BME280;12763;55.802;37.404;2023-03-19T08:23:12;100547.13;;;5.62;44.21
24620;BME280;12763;55.802;37.404;2023-03-19T08:25:38;100547.13;;;5.62;44.02
24620;BME280;12763;55.802;37.404;2023-03-19T08:28:04;100549.03;;;5.70;44.00
24620;BME280;12763;55.802;37.404;2023-03-19T08:30:30;100535.44;;;5.52;44.11
24620;BME280;12763;55.802;37.404;2023-03-19T08:32:56;100533.69;;;5.43;44.50
24620;BME280;12763;55.802;37.404;2023-03-19T08:35:23;100527.91;;;5.54;44.23
24620;BME280;12763;55.802;37.404;2023-03-19T08:37:52;100532.53;;;5.28;44.56
24620;BME280;12763;55.802;37.404;2023-03-19T08:40:18;100527.41;;;5.59;44.69
24620;BME280;12763;55.802;37.404;2023-03-19T08:42:45;100526.75;;;5.57;44.74
24620;BME280;12763;55.802;37.404;2023-03-19T08:45:13;100517.50;;;5.58;45.01
24620;BME280;12763;55.802;37.404;2023-03-19T08:47:39;100519.78;;;5.11;45.54
24620;BME280;12763;55.802;37.404;2023-03-19T08:50:06;100515.47;;;5.08;45.76
24620;BME280;12763;55.802;37.404;2023-03-19T08:52:32;100507.94;;;5.36;45.09
24620;BME280;12763;55.802;37.404;2023-03-19T08:54:58;100504.28;;;5.53;45.34
24620;BME280;12763;55.802;37.404;2023-03-19T08:57:23;100495.34;;;5.43;45.36
24620;BME280;12763;55.802;37.404;2023-03-19T08:59:51;100498.97;;;5.85;44.80
24620;BME280;12763;55.802;37.404;2023-03-19T09:02:17;100494.91;;;5.89;44.13
24620;BME280;12763;55.802;37.404;2023-03-19T09:04:43;100494.31;;;5.44;44.85
24620;BME280;12763;55.802;37.404;2023-03-19T09:07:10;100494.53;;;5.25;45.19
24620;BME280;12763;55.802;37.404;2023-03-19T09:09:38;100482.22;;;5.21;45.03
24620;BME280;12763;55.802;37.404;2023-03-19T09:12:05;100486.34;;;5.59;44.58
24620;BME280;12763;55.802;37.404;2023-03-19T09:14:32;100479.41;;;5.72;44.07
24620;BME280;12763;55.802;37.404;2023-03-19T09:16:58;100478.69;;;5.62;44.43
24620;BME280;12763;55.802;37.404;2023-03-19T09:19:25;100476.28;;;6.01;44.05
24620;BME280;12763;55.802;37.404;2023-03-19T09:21:50;100480.75;;;5.68;44.16
24620;BME280;12763;55.802;37.404;2023-03-19T09:24:16;100493.75;;;5.66;44.27
24620;BME280;12763;55.802;37.404;2023-03-19T09:26:44;100485.56;;;5.74;44.24
24620;BME280;12763;55.802;37.404;2023-03-19T09:29:11;100483.63;;;5.93;44.24
24620;BME280;12763;55.802;37.404;2023-03-19T09:31:37;100477.72;;;6.21;44.39
24620;BME280;12763;55.802;37.404;2023-03-19T09:34:03;100471.41;;;6.53;43.82
24620;BME280;12763;55.802;37.404;2023-03-19T09:36:31;100476.22;;;6.51;44.19
24620;BME280;12763;55.802;37.404;2023-03-19T09:38:57;100471.72;;;6.82;43.52
24620;BME280;12763;55.802;37.404;2023-03-19T09:44:12;100468.63;;;7.01;43.03
24620;BME280;12763;55.802;37.404;2023-03-19T09:46:49;100465.09;;;7.56;42.63
24620;BME280;12763;55.802;37.404;2023-03-19T09:49:24;100462.19;;;7.49;42.08
24620;BME280;12763;55.802;37.404;2023-03-19T09:51:56;100454.91;;;8.03;41.62
24620;BME280;12763;55.802;37.404;2023-03-19T09:54:36;100452.16;;;8.57;40.44
24620;BME280;12763;55.802;37.404;2023-03-19T09:57:04;100454.69;;;8.81;40.84
24620;BME280;12763;55.802;37.404;2023-03-19T09:59:30;100445.09;;;9.00;40.16
24620;BME280;12763;55.802;37.404;2023-03-19T10:04:38;100443.44;;;9.57;39.57
24620;BME280;12763;55.802;37.404;2023-03-19T10:07:47;100435.38;;;9.91;38.29
24620;BME280;12763;55.802;37.404;2023-03-19T10:10:46;100429.19;;;10.04;37.99
24620;BME280;12763;55.802;37.404;2023-03-19T10:13:33;100425.41;;;10.41;38.30
24620;BME280;12763;55.802;37.404;2023-03-19T10:16:04;100420.59;;;10.49;38.39
24620;BME280;12763;55.802;37.404;2023-03-19T10:18:34;100420.19;;;10.52;38.44
24620;BME280;12763;55.802;37.404;2023-03-19T10:21:04;100417.28;;;10.33;38.47
24620;BME280;12763;55.802;37.404;2023-03-19T10:23:50;100418.78;;;10.56;37.81
24620;BME280;12763;55.802;37.404;2023-03-19T10:26:20;100420.78;;;10.69;38.53
24620;BME280;12763;55.802;37.404;2023-03-19T10:34:28;100406.16;;;11.24;36.62
24620;BME280;12763;55.802;37.404;2023-03-19T10:39:34;100397.16;;;11.43;36.90
24620;BME280;12763;55.802;37.404;2023-03-19T10:45:18;100392.13;;;11.60;36.06
24620;BME280;12763;55.802;37.404;2023-03-19T10:47:45;100389.53;;;11.86;36.92
24620;BME280;12763;55.802;37.404;2023-03-19T10:50:21;100392.00;;;12.35;36.04
24620;BME280;12763;55.802;37.404;2023-03-19T10:52:51;100390.13;;;12.81;35.75
24620;BME280;12763;55.802;37.404;2023-03-19T10:55:25;100393.59;;;13.16;35.16
24620;BME280;12763;55.802;37.404;2023-03-19T10:58:03;100384.22;;;13.11;34.11
24620;BME280;12763;55.802;37.404;2023-03-19T11:00:30;100382.81;;;13.66;34.25
24620;BME280;12763;55.802;37.404;2023-03-19T11:02:58;100382.84;;;13.52;34.36
24620;BME280;12763;55.802;37.404;2023-03-19T11:05:28;100375.25;;;13.22;34.26
24620;BME280;12763;55.802;37.404;2023-03-19T11:08:05;100371.72;;;13.59;33.71
24620;BME280;12763;55.802;37.404;2023-03-19T11:10:34;100367.47;;;14.07;33.63
24620;BME280;12763;55.802;37.404;2023-03-19T11:13:20;100371.91;;;14.84;31.52
24620;BME280;12763;55.802;37.404;2023-03-19T11:15:47;100367.34;;;15.14;32.36
24620;BME280;12763;55.802;37.404;2023-03-19T11:18:22;100362.19;;;15.79;30.87
24620;BME280;12763;55.802;37.404;2023-03-19T11:20:54;100355.84;;;15.90;30.51
24620;BME280;12763;55.802;37.404;2023-03-19T11:23:21;100354.25;;;16.12;31.17
24620;BME280;12763;55.802;37.404;2023-03-19T11:25:52;100355.84;;;16.91;29.87
24620;BME280;12763;55.802;37.404;2023-03-19T11:28:21;100353.81;;;17.44;29.44
24620;BME280;12763;55.802;37.404;2023-03-19T11:36:44;100345.81;;;16.90;29.30
24620;BME280;12763;55.802;37.404;2023-03-19T11:39:47;100343.16;;;16.95;28.75
24620;BME280;12763;55.802;37.404;2023-03-19T11:42:40;100332.34;;;17.45;28.53
24620;BME280;12763;55.802;37.404;2023-03-19T11:50:59;100336.47;;;17.19;29.47
24620;BME280;12763;55.802;37.404;2023-03-19T11:56:41;100323.28;;;16.50;28.71
24620;BME280;12763;55.802;37.404;2023-03-19T12:04:47;100311.41;;;16.43;29.94
24620;BME280;12763;55.802;37.404;2023-03-19T12:08:03;100300.94;;;16.80;29.32
24620;BME280;12763;55.802;37.404;2023-03-19T12:10:51;100298.94;;;16.45;28.81
24620;BME280;12763;55.802;37.404;2023-03-19T12:22:11;100277.06;;;17.53;27.97
24620;BME280;12763;55.802;37.404;2023-03-19T12:27:42;100265.91;;;16.72;29.00
24620;BME280;12763;55.802;37.404;2023-03-19T12:35:38;100260.81;;;17.04;28.35
24620;BME280;12763;55.802;37.404;2023-03-19T12:46:13;100233.78;;;16.93;28.31
24620;BME280;12763;55.802;37.404;2023-03-19T12:48:45;100235.13;;;17.02;29.05
24620;BME280;12763;55.802;37.404;2023-03-19T12:51:16;100230.88;;;16.88;28.91
24620;BME280;12763;55.802;37.404;2023-03-19T12:54:24;100234.81;;;17.38;28.04
24620;BME280;12763;55.802;37.404;2023-03-19T13:10:42;100220.59;;;17.63;28.39
24620;BME280;12763;55.802;37.404;2023-03-19T13:16:06;100218.47;;;17.53;27.83
24620;BME280;12763;55.802;37.404;2023-03-19T13:21:22;100218.09;;;17.27;27.87
24620;BME280;12763;55.802;37.404;2023-03-19T13:24:00;100215.81;;;17.24;28.49
24620;BME280;12763;55.802;37.404;2023-03-19T13:26:28;100209.19;;;17.65;28.13
24620;BME280;12763;55.802;37.404;2023-03-19T13:31:34;100216.50;;;17.82;28.19
24620;BME280;12763;55.802;37.404;2023-03-19T13:34:03;100205.72;;;18.02;27.66
24620;BME280;12763;55.802;37.404;2023-03-19T13:36:35;100200.84;;;17.41;27.95
24620;BME280;12763;55.802;37.404;2023-03-19T13:39:03;100198.41;;;17.56;27.88
24620;BME280;12763;55.802;37.404;2023-03-19T13:46:48;100194.22;;;17.99;27.47
24620;BME280;12763;55.802;37.404;2023-03-19T13:49:30;100194.94;;;17.78;26.44
24620;BME280;12763;55.802;37.404;2023-03-19T13:54:40;100183.00;;;17.14;27.42
24620;BME280;12763;55.802;37.404;2023-03-19T13:59:40;100185.06;;;17.58;27.06
24620;BME280;12763;55.802;37.404;2023-03-19T14:05:07;100186.41;;;17.56;26.95
24620;BME280;12763;55.802;37.404;2023-03-19T14:07:37;100174.53;;;17.37;27.30
24620;BME280;12763;55.802;37.404;2023-03-19T14:10:15;100175.88;;;17.75;26.37
24620;BME280;12763;55.802;37.404;2023-03-19T14:12:44;100164.03;;;17.28;27.22
24620;BME280;12763;55.802;37.404;2023-03-19T14:15:21;100161.75;;;17.53;26.41
24620;BME280;12763;55.802;37.404;2023-03-19T14:18:00;100169.78;;;17.49;26.68
24620;BME280;12763;55.802;37.404;2023-03-19T14:20:31;100163.97;;;17.11;27.19
24620;BME280;12763;55.802;37.404;2023-03-19T14:23:38;100163.03;;;16.94;27.63
24620;BME280;12763;55.802;37.404;2023-03-19T14:26:17;100149.63;;;17.19;27.49
24620;BME280;12763;55.802;37.404;2023-03-19T14:29:00;100145.97;;;17.30;27.80
24620;BME280;12763;55.802;37.404;2023-03-19T14:31:45;100145.59;;;17.27;27.64
24620;BME280;12763;55.802;37.404;2023-03-19T14:34:33;100146.94;;;17.24;27.64
24620;BME280;12763;55.802;37.404;2023-03-19T14:37:07;100144.50;;;17.28;27.66
24620;BME280;12763;55.802;37.404;2023-03-19T14:39:41;100143.41;;;17.29;27.39
24620;BME280;12763;55.802;37.404;2023-03-19T14:42:25;100133.66;;;17.15;26.76
24620;BME280;12763;55.802;37.404;2023-03-19T14:50:41;100146.06;;;14.59;30.31